Cam Ranh International Airport

Airport
ICAO code: 
VVCR
IATA Code: 
CAM
Summary
ICAO Region: 
APAC
Territory: 
Location: 
Cam Rant Bay, Khanh Hoa
Serving: 
Nha Trang
Elevation: 
40 ft
Coordinates: 
Aerial View: 
11° 59' 53.016" N, 109° 13' 9.984" E
Metar
Observation
VVCR 022230Z 23009KT 9999 SCT015 28/21 Q1005 NOSIG
Station
Cam Ranh International Airport
Date/Time
2022-07-02 22:30:00
Wind direction
230°
Wind speed
09 kts
Lowest cloud amount
scattered clouds
Temperature
28°C
Dew point
21°C
Humidity
65%
QNH
1005 hPa
Weather condition
n/a

Cam Ranh International Airport is located on Cam Ranh Bay in Cam Ranh, a town in Khánh Hòa Province in Vietnam. It serves the city of Nha Trang, which is 30 km from the airport.

Climatology

Tropical savannah climate (Köppen climate classification Aw)

Runways

Designator Length Width Surface Rops
2/20 3048 46 CON Yes/Yes
Airport map: 
Aerial View: 

SKYbrary Partners:

Safety knowledge contributed by: